Terminal Aerodrome Forecast
Issued by NWS

Current Version | Previous Version | Text Only | Print | Product List | Glossary On
Versions: 1 2 3 4 5 6 7 8 9 10 11 12
000
FTUS45 KABQ 211100
TAFFMN
TAF
KFMN 211129Z 2112/2212 08007KT P6SM BKN200
     FM211800 12006KT P6SM SCT060 BKN120
     FM220000 VRB04KT P6SM BKN060
     FM220600 07006KT P6SM SCT060=

USA.gov is the U.S. government's official web portal to all federal, state and local government web resources and services.